Laukaa, Finland
Kieli:  Suomi
13°C CurCond
Päivitetty22/06/2018 06:05 
 

Lähistön Lentoasemien Säätiloja:

 

EFJY - Jyvaskyla (mil/C,) Finland
Etäisyys Sääasemalta: PKo 21km
Päivitetty: 22/06/2018 05:50
Heikkoa sadetta, Pilvistä
Heikkoa sadetta, Pilvistä
 Tuulen suunta Ko
Tuuli: Ko 22 km/h
Lämpötila: 13°C
Kastepiste: 12°C
Ilmankosteus: 94%
Ilmanpaine: 987 hPa
Yhteenveto: Light Rain
Pilvisyys: Pilvistä
Näkyvyys: 5 km
Pilvisyystiedot: Pilvistä 152 m
2018/06/22 02:50 EFJY 220250Z AUTO 05012KT 5000 -RA OVC005 13/12 Q0987 RERA
EFHA - Halli (fin-Afb), Finland
Etäisyys Sääasemalta: Lo 56km
Päivitetty: 22/06/2018 05:50
Thunderstorm rain, Pilvistä
Thunderstorm rain, Pilvistä
 Tuulen suunta E
Tuuli: E 7 km/h
Lämpötila: 13°C
Kastepiste: 13°C
Ilmankosteus: 100%
Ilmanpaine: 988 hPa
Yhteenveto: Thunderstorm Rain
Pilvisyys: Pilvistä
Näkyvyys: 5 km
Pilvisyystiedot: Pilvistä 152 m
2018/06/22 02:50 EFHA 220250Z AUTO 19004KT 160V230 4700 TSRA OVC005 13/13 Q0988
EFMI - Mikkeli, Finland
Etäisyys Sääasemalta: IKa 105km
Päivitetty: 22/06/2018 05:50
Heikkoa sadetta, Kuurottaisia sateita, Pilvistä
Heikkoa sadetta, Kuurottaisia sateita, Pilvistä
 Tuulen suunta Ka
Tuuli: Ka 19 km/h
Lämpötila: 16°C
Kastepiste: 15°C
Ilmankosteus: 94%
Ilmanpaine: 990 hPa
Yhteenveto: Heikkoa sadetta, Kuurottaisia sateita
Pilvisyys: Pilvistä
Näkyvyys: 10 km
Pilvisyystiedot: Pilvistä 244 m
2018/06/22 02:50 EFMI 220250Z AUTO 14010KT 100V210 9999 -SHRA OVC008 16/15 Q0990
 
EFTP - Tampere/Pirkkala, Finland
Etäisyys Sääasemalta: Lo 135km
Päivitetty: 22/06/2018 05:50
Enimmäkseen pilvistä
Enimmäkseen pilvistä
 Tuulen suunta E
Tuuli: E 13 km/h
Lämpötila: 11°C
Kastepiste: 11°C
Ilmankosteus: 100%
Ilmanpaine: 990 hPa
Pilvisyys: Enimmäkseen pilvistä
Näkyvyys: 10 km
Pilvisyystiedot: Joitain Pilviä 152 m
Puolipilvistä 244 m
Enimmäkseen pilvistä 305 m
2018/06/22 02:50 EFTP 220250Z AUTO 19007KT 9999 FEW005 SCT008 BKN010 11/11 Q0990 RERA
EFKU - Kuopio (mil/Civ), Finland
Etäisyys Sääasemalta: Ko 146km
Päivitetty: 22/06/2018 05:50
Heikkoa sadetta, Pilvistä
Heikkoa sadetta, Pilvistä
 Tuulen suunta I
Tuuli: I 15 km/h, Puuskatuuli: 35 km/h
Lämpötila: 12°C
Kastepiste: 12°C
Ilmankosteus: 100%
Ilmanpaine: 991 hPa
Yhteenveto: Light Rain
Pilvisyys: Pilvistä
Näkyvyys: 8 km
Pilvisyystiedot: Pilvistä 152 m
2018/06/22 02:50 EFKU 220250Z AUTO 08008G19KT 020V170 8000 -RA OVC005 12/12 Q0991 RERA
EFSI - Seinajoki-Ilmajo, Finland
Etäisyys Sääasemalta: LLu 149km
Päivitetty: 22/06/2018 05:50
Sade, Enimmäkseen pilvistä
Sade, Enimmäkseen pilvistä
 Tuulen suunta PKo
Tuuli: PKo 17 km/h
Lämpötila: 10°C
Tuulen purevuus: 8°C
Kastepiste: 9°C
Ilmankosteus: 94%
Ilmanpaine: 989 hPa
Yhteenveto: Sade
Pilvisyys: Enimmäkseen pilvistä
Näkyvyys: 10 km
Pilvisyystiedot: Joitain Pilviä 183 m
Puolipilvistä 274 m
Enimmäkseen pilvistä 335 m
2018/06/22 02:50 EFSI 220250Z AUTO 03009KT 350V090 9999 RA FEW006 SCT009 BKN011 10/09 Q0989